sensor_id;sensor_type;location;lat;lon;timestamp;pressure;altitude;pressure_sealevel;temperature;humidity
56402;BME280;42299;35.160;26.100;2023-08-17T00:00:43;100544.19;;;25.99;100.00
56402;BME280;42299;35.160;26.100;2023-08-17T00:11:05;100538.16;;;25.94;100.00
56402;BME280;42299;35.160;26.100;2023-08-17T00:21:30;100538.47;;;25.88;100.00
56402;BME280;42299;35.160;26.100;2023-08-17T00:31:53;100537.69;;;25.86;100.00
56402;BME280;42299;35.160;26.100;2023-08-17T00:41:57;100531.56;;;25.83;100.00
56402;BME280;42299;35.160;26.100;2023-08-17T00:52:19;100530.13;;;25.75;100.00
56402;BME280;42299;35.160;26.100;2023-08-17T01:02:44;100521.03;;;25.59;100.00
56402;BME280;42299;35.160;26.100;2023-08-17T01:13:11;100522.88;;;25.59;100.00
56402;BME280;42299;35.160;26.100;2023-08-17T01:23:37;100526.63;;;25.55;100.00
56402;BME280;42299;35.160;26.100;2023-08-17T01:34:04;100529.56;;;25.50;100.00
56402;BME280;42299;35.160;26.100;2023-08-17T01:44:29;100525.09;;;25.49;100.00
56402;BME280;42299;35.160;26.100;2023-08-17T01:54:52;100529.63;;;25.49;100.00
56402;BME280;42299;35.160;26.100;2023-08-17T02:05:16;100528.53;;;25.53;100.00
56402;BME280;42299;35.160;26.100;2023-08-17T02:15:40;100523.56;;;25.62;100.00
56402;BME280;42299;35.160;26.100;2023-08-17T02:26:06;100527.78;;;25.68;100.00
56402;BME280;42299;35.160;26.100;2023-08-17T02:36:28;100512.75;;;25.62;100.00
56402;BME280;42299;35.160;26.100;2023-08-17T02:46:53;100513.81;;;25.60;100.00
56402;BME280;42299;35.160;26.100;2023-08-17T02:57:16;100511.09;;;25.60;100.00
56402;BME280;42299;35.160;26.100;2023-08-17T03:07:42;100501.31;;;25.57;100.00
56402;BME280;42299;35.160;26.100;2023-08-17T03:18:04;100507.94;;;25.50;100.00
56402;BME280;42299;35.160;26.100;2023-08-17T03:28:28;100493.91;;;25.42;100.00
56402;BME280;42299;35.160;26.100;2023-08-17T03:38:51;100513.69;;;25.25;100.00
56402;BME280;42299;35.160;26.100;2023-08-17T03:49:16;100517.16;;;25.27;100.00
56402;BME280;42299;35.160;26.100;2023-08-17T03:59:39;100524.91;;;25.35;100.00
56402;BME280;42299;35.160;26.100;2023-08-17T04:10:05;100524.44;;;25.63;100.00
56402;BME280;42299;35.160;26.100;2023-08-17T04:20:28;100536.19;;;25.98;100.00
56402;BME280;42299;35.160;26.100;2023-08-17T04:30:52;100533.47;;;26.49;100.00
56402;BME280;42299;35.160;26.100;2023-08-17T04:41:15;100546.09;;;26.99;100.00
56402;BME280;42299;35.160;26.100;2023-08-17T04:51:39;100550.84;;;27.58;100.00
56402;BME280;42299;35.160;26.100;2023-08-17T05:02:02;100551.19;;;28.13;100.00
56402;BME280;42299;35.160;26.100;2023-08-17T05:12:26;100549.94;;;28.63;100.00
56402;BME280;42299;35.160;26.100;2023-08-17T05:22:49;100555.00;;;29.26;100.00
56402;BME280;42299;35.160;26.100;2023-08-17T05:33:14;100548.47;;;30.36;100.00
56402;BME280;42299;35.160;26.100;2023-08-17T05:43:36;100556.03;;;31.45;100.00
56402;BME280;42299;35.160;26.100;2023-08-17T05:54:01;100549.78;;;32.27;100.00
56402;BME280;42299;35.160;26.100;2023-08-17T06:04:24;100557.69;;;32.65;93.26
56402;BME280;42299;35.160;26.100;2023-08-17T06:14:49;100553.75;;;33.02;83.43
56402;BME280;42299;35.160;26.100;2023-08-17T06:25:11;100551.53;;;33.30;81.61
56402;BME280;42299;35.160;26.100;2023-08-17T06:35:35;100558.00;;;33.40;73.21
56402;BME280;42299;35.160;26.100;2023-08-17T06:45:58;100570.56;;;33.53;70.44
56402;BME280;42299;35.160;26.100;2023-08-17T06:56:22;100573.56;;;33.39;68.34
56402;BME280;42299;35.160;26.100;2023-08-17T07:06:45;100574.47;;;34.15;64.79
56402;BME280;42299;35.160;26.100;2023-08-17T07:17:09;100574.97;;;34.20;61.25
56402;BME280;42299;35.160;26.100;2023-08-17T07:27:31;100571.25;;;34.10;59.20
56402;BME280;42299;35.160;26.100;2023-08-17T07:37:56;100579.59;;;34.08;56.92
56402;BME280;42299;35.160;26.100;2023-08-17T07:48:18;100576.19;;;34.48;54.06
56402;BME280;42299;35.160;26.100;2023-08-17T07:58:42;100578.56;;;35.24;52.04
56402;BME280;42299;35.160;26.100;2023-08-17T08:09:05;100576.25;;;35.79;48.61
56402;BME280;42299;35.160;26.100;2023-08-17T08:19:30;100585.09;;;36.11;45.61
56402;BME280;42299;35.160;26.100;2023-08-17T08:29:53;100577.78;;;36.21;44.74
56402;BME280;42299;35.160;26.100;2023-08-17T08:40:19;100589.19;;;36.26;44.16
56402;BME280;42299;35.160;26.100;2023-08-17T08:50:44;100583.09;;;36.52;43.14
56402;BME280;42299;35.160;26.100;2023-08-17T09:01:10;100577.34;;;37.01;42.68
56402;BME280;42299;35.160;26.100;2023-08-17T09:11:33;100579.31;;;37.09;41.64
56402;BME280;42299;35.160;26.100;2023-08-17T09:21:38;100575.47;;;36.92;42.08
56402;BME280;42299;35.160;26.100;2023-08-17T09:32:04;100584.22;;;37.25;42.44
56402;BME280;42299;35.160;26.100;2023-08-17T09:42:28;100581.28;;;37.63;41.57
56402;BME280;42299;35.160;26.100;2023-08-17T09:52:53;100569.22;;;38.09;41.19
56402;BME280;42299;35.160;26.100;2023-08-17T10:03:18;100575.69;;;38.18;41.47
56402;BME280;42299;35.160;26.100;2023-08-17T10:13:45;100573.22;;;37.97;41.46
56402;BME280;42299;35.160;26.100;2023-08-17T10:23:50;100577.47;;;37.74;42.03
56402;BME280;42299;35.160;26.100;2023-08-17T10:34:13;100590.06;;;37.76;43.30
56402;BME280;42299;35.160;26.100;2023-08-17T10:44:42;100566.28;;;37.21;43.63
56402;BME280;42299;35.160;26.100;2023-08-17T10:55:06;100571.59;;;36.85;45.53
56402;BME280;42299;35.160;26.100;2023-08-17T11:05:39;100576.91;;;36.96;46.78
56402;BME280;42299;35.160;26.100;2023-08-17T11:16:03;100572.78;;;36.73;47.17
56402;BME280;42299;35.160;26.100;2023-08-17T11:26:08;100568.25;;;36.91;49.17
56402;BME280;42299;35.160;26.100;2023-08-17T11:36:33;100560.03;;;36.72;49.93
56402;BME280;42299;35.160;26.100;2023-08-17T11:46:57;100552.81;;;36.52;49.77
56402;BME280;42299;35.160;26.100;2023-08-17T11:57:19;100551.53;;;36.56;48.74
56402;BME280;42299;35.160;26.100;2023-08-17T12:07:45;100543.25;;;36.75;49.76
56402;BME280;42299;35.160;26.100;2023-08-17T12:18:07;100539.94;;;36.62;48.75
56402;BME280;42299;35.160;26.100;2023-08-17T12:28:32;100534.56;;;36.51;51.86
56402;BME280;42299;35.160;26.100;2023-08-17T12:38:54;100536.34;;;36.42;53.56
56402;BME280;42299;35.160;26.100;2023-08-17T12:49:18;100527.31;;;36.50;54.30
56402;BME280;42299;35.160;26.100;2023-08-17T12:59:41;100533.47;;;36.24;55.20
56402;BME280;42299;35.160;26.100;2023-08-17T13:10:06;100527.81;;;36.07;55.04
56402;BME280;42299;35.160;26.100;2023-08-17T13:20:29;100531.69;;;35.85;55.60
56402;BME280;42299;35.160;26.100;2023-08-17T13:30:53;100540.09;;;35.74;58.41
56402;BME280;42299;35.160;26.100;2023-08-17T13:41:16;100560.97;;;35.46;61.35
56402;BME280;42299;35.160;26.100;2023-08-17T13:51:40;100559.59;;;34.91;60.46
56402;BME280;42299;35.160;26.100;2023-08-17T14:02:03;100548.72;;;34.59;60.80
56402;BME280;42299;35.160;26.100;2023-08-17T14:12:27;100544.22;;;34.37;61.58
56402;BME280;42299;35.160;26.100;2023-08-17T14:22:49;100539.88;;;34.34;65.95
56402;BME280;42299;35.160;26.100;2023-08-17T14:32:53;100543.94;;;34.40;64.76
56402;BME280;42299;35.160;26.100;2023-08-17T14:43:16;100541.03;;;34.53;65.21
56402;BME280;42299;35.160;26.100;2023-08-17T14:53:40;100543.09;;;34.08;75.09
56402;BME280;42299;35.160;26.100;2023-08-17T15:04:02;100551.75;;;33.49;80.19
56402;BME280;42299;35.160;26.100;2023-08-17T15:14:26;100545.56;;;33.13;82.78
56402;BME280;42299;35.160;26.100;2023-08-17T15:24:49;100553.50;;;32.83;85.81
56402;BME280;42299;35.160;26.100;2023-08-17T15:35:17;100548.03;;;32.26;87.87
56402;BME280;42299;35.160;26.100;2023-08-17T15:45:41;100541.50;;;31.81;88.38
56402;BME280;42299;35.160;26.100;2023-08-17T15:56:05;100535.25;;;31.55;89.39
56402;BME280;42299;35.160;26.100;2023-08-17T16:06:28;100535.47;;;31.28;91.60
56402;BME280;42299;35.160;26.100;2023-08-17T16:16:52;100544.03;;;31.11;94.89
56402;BME280;42299;35.160;26.100;2023-08-17T16:27:14;100545.91;;;30.85;98.95
56402;BME280;42299;35.160;26.100;2023-08-17T16:37:38;100543.59;;;30.66;100.00
56402;BME280;42299;35.160;26.100;2023-08-17T16:48:01;100545.84;;;30.47;100.00
56402;BME280;42299;35.160;26.100;2023-08-17T16:58:26;100545.84;;;30.34;100.00
56402;BME280;42299;35.160;26.100;2023-08-17T17:08:48;100565.75;;;30.09;100.00
56402;BME280;42299;35.160;26.100;2023-08-17T17:19:12;100559.28;;;29.98;100.00
56402;BME280;42299;35.160;26.100;2023-08-17T17:29:35;100552.84;;;29.72;100.00
56402;BME280;42299;35.160;26.100;2023-08-17T17:39:59;100557.50;;;29.43;100.00
56402;BME280;42299;35.160;26.100;2023-08-17T17:50:21;100552.06;;;29.29;100.00
56402;BME280;42299;35.160;26.100;2023-08-17T18:00:47;100558.53;;;29.14;100.00
56402;BME280;42299;35.160;26.100;2023-08-17T18:11:09;100575.41;;;29.05;100.00
56402;BME280;42299;35.160;26.100;2023-08-17T18:21:33;100580.84;;;28.90;100.00
56402;BME280;42299;35.160;26.100;2023-08-17T18:31:57;100586.88;;;28.81;100.00
56402;BME280;42299;35.160;26.100;2023-08-17T18:42:16;100589.63;;;28.66;100.00
56402;BME280;42299;35.160;26.100;2023-08-17T18:52:38;100586.50;;;28.58;100.00
56402;BME280;42299;35.160;26.100;2023-08-17T19:03:04;100598.06;;;28.47;100.00
56402;BME280;42299;35.160;26.100;2023-08-17T19:13:26;100599.94;;;28.31;100.00
56402;BME280;42299;35.160;26.100;2023-08-17T19:23:51;100598.19;;;28.30;100.00
56402;BME280;42299;35.160;26.100;2023-08-17T19:34:14;100604.09;;;28.22;100.00
56402;BME280;42299;35.160;26.100;2023-08-17T19:44:38;100592.66;;;28.01;100.00
56402;BME280;42299;35.160;26.100;2023-08-17T19:55:01;100603.25;;;27.90;100.00
56402;BME280;42299;35.160;26.100;2023-08-17T20:05:25;100598.28;;;27.83;100.00
56402;BME280;42299;35.160;26.100;2023-08-17T20:15:53;100599.09;;;27.69;100.00
56402;BME280;42299;35.160;26.100;2023-08-17T20:26:17;100603.78;;;27.65;100.00
56402;BME280;42299;35.160;26.100;2023-08-17T20:36:40;100606.78;;;27.61;100.00
56402;BME280;42299;35.160;26.100;2023-08-17T20:47:04;100596.28;;;27.55;100.00
56402;BME280;42299;35.160;26.100;2023-08-17T20:57:29;100592.56;;;27.40;100.00
56402;BME280;42299;35.160;26.100;2023-08-17T21:07:54;100580.31;;;27.33;100.00
56402;BME280;42299;35.160;26.100;2023-08-17T21:18:16;100567.19;;;27.25;100.00
56402;BME280;42299;35.160;26.100;2023-08-17T21:28:41;100575.06;;;27.14;100.00
56402;BME280;42299;35.160;26.100;2023-08-17T21:39:04;100563.75;;;27.06;100.00
56402;BME280;42299;35.160;26.100;2023-08-17T21:49:28;100572.97;;;27.04;100.00
56402;BME280;42299;35.160;26.100;2023-08-17T21:59:51;100567.00;;;26.97;100.00
56402;BME280;42299;35.160;26.100;2023-08-17T22:10:15;100575.75;;;26.85;100.00
56402;BME280;42299;35.160;26.100;2023-08-17T22:20:38;100579.31;;;26.70;100.00
56402;BME280;42299;35.160;26.100;2023-08-17T22:31:03;100574.94;;;26.67;100.00
56402;BME280;42299;35.160;26.100;2023-08-17T22:41:27;100564.91;;;26.52;100.00
56402;BME280;42299;35.160;26.100;2023-08-17T22:51:31;100557.44;;;26.40;100.00
56402;BME280;42299;35.160;26.100;2023-08-17T23:01:53;100557.28;;;26.26;100.00
56402;BME280;42299;35.160;26.100;2023-08-17T23:11:57;100561.41;;;26.15;100.00
56402;BME280;42299;35.160;26.100;2023-08-17T23:22:20;100555.59;;;26.06;100.00
56402;BME280;42299;35.160;26.100;2023-08-17T23:32:44;100543.75;;;25.91;100.00
56402;BME280;42299;35.160;26.100;2023-08-17T23:43:04;100530.75;;;25.80;100.00
56402;BME280;42299;35.160;26.100;2023-08-17T23:53:28;100537.34;;;25.75;100.00
